createdAt,value
2022-11-04T00:00:08.204Z,3.67
2022-11-04T00:00:40.438Z,3.73
2022-11-04T00:01:15.454Z,4.20
2022-11-04T00:01:48.552Z,4.10
2022-11-04T00:02:23.442Z,3.67
2022-11-04T00:02:55.713Z,3.50
2022-11-04T00:03:27.890Z,3.43
2022-11-04T00:04:02.728Z,3.83
2022-11-04T00:04:34.976Z,4.07
2022-11-04T00:05:10.319Z,3.77
2022-11-04T00:05:42.537Z,3.73
2022-11-04T00:06:14.787Z,3.50
2022-11-04T00:06:50.086Z,3.60
2022-11-04T00:07:37.329Z,3.00
2022-11-04T00:08:24.569Z,3.90
2022-11-04T00:08:58.572Z,4.30
2022-11-04T00:09:33.494Z,3.30
2022-11-04T00:10:06.725Z,3.47
2022-11-04T00:10:53.975Z,3.53
2022-11-04T00:11:43.943Z,3.50
2022-11-04T00:12:25.437Z,3.27
2022-11-04T00:12:57.655Z,2.90
2022-11-04T00:13:30.323Z,3.40
2022-11-04T00:14:05.590Z,2.67
2022-11-04T00:14:37.979Z,3.00
2022-11-04T00:15:25.503Z,2.70
2022-11-04T00:16:16.498Z,2.80
2022-11-04T00:17:03.844Z,2.63
2022-11-04T00:17:38.628Z,2.97
2022-11-04T00:18:10.834Z,2.77
2022-11-04T00:18:43.092Z,3.10
2022-11-04T00:19:15.650Z,2.93
2022-11-04T00:20:04.204Z,2.40
2022-11-04T00:20:57.399Z,2.80
2022-11-04T00:21:44.653Z,2.60
2022-11-04T00:22:32.114Z,2.63
2022-11-04T00:23:19.314Z,3.00
2022-11-04T00:24:06.534Z,2.70
2022-11-04T00:24:53.715Z,2.30
2022-11-04T00:26:51.222Z,2.67
2022-11-04T00:27:38.450Z,2.40
2022-11-04T00:28:27.754Z,2.50
2022-11-04T00:29:02.727Z,2.60
2022-11-04T00:29:34.963Z,2.40
2022-11-04T00:30:09.855Z,2.50
2022-11-04T00:30:44.666Z,2.40
2022-11-04T00:31:31.866Z,2.60
2022-11-04T00:32:19.446Z,2.17
2022-11-04T00:33:06.631Z,2.50
2022-11-04T00:33:38.815Z,2.30
2022-11-04T00:34:11.009Z,2.30
2022-11-04T00:34:45.855Z,2.43
2022-11-04T00:35:18.376Z,2.53
2022-11-04T00:35:50.667Z,2.27
2022-11-04T00:36:26.648Z,2.17
2022-11-04T00:37:00.188Z,1.90
2022-11-04T00:37:32.396Z,2.30
2022-11-04T00:38:07.526Z,2.07
2022-11-04T00:38:39.865Z,2.30
2022-11-04T00:39:14.735Z,1.90
2022-11-04T00:39:46.964Z,2.50
2022-11-04T00:40:19.383Z,1.90
2022-11-04T00:40:54.625Z,2.00
2022-11-04T00:41:27.311Z,1.70
2022-11-04T00:42:02.665Z,1.97
2022-11-04T00:42:35.075Z,1.77
2022-11-04T00:43:09.850Z,2.00
2022-11-04T00:43:42.661Z,1.90
2022-11-04T00:44:14.842Z,1.77
2022-11-04T00:44:49.663Z,1.83
2022-11-04T00:45:21.843Z,2.03
2022-11-04T00:45:56.638Z,2.10
2022-11-04T00:46:30.033Z,1.63
2022-11-04T00:47:02.222Z,1.60
2022-11-04T00:47:34.415Z,1.73
2022-11-04T00:48:09.504Z,1.60
2022-11-04T00:48:42.000Z,1.70
2022-11-04T00:49:14.223Z,1.80
2022-11-04T00:49:49.174Z,1.70
2022-11-04T00:50:21.394Z,1.73
2022-11-04T00:50:53.599Z,1.40
2022-11-04T00:51:28.718Z,1.70
2022-11-04T00:52:00.923Z,1.80
2022-11-04T00:52:33.114Z,1.53
2022-11-04T00:53:08.348Z,1.30
2022-11-04T00:53:40.794Z,1.53
2022-11-04T00:54:13.118Z,1.67
2022-11-04T00:54:48.045Z,1.37
2022-11-04T00:55:20.218Z,1.53
2022-11-04T00:55:52.450Z,1.50
2022-11-04T00:56:27.235Z,1.50
2022-11-04T00:56:59.420Z,1.20
2022-11-04T00:57:34.230Z,1.40
2022-11-04T00:58:09.022Z,1.50
2022-11-04T00:58:41.205Z,1.50
2022-11-04T00:59:14.639Z,1.30
2022-11-04T00:59:49.614Z,1.30
2022-11-04T01:00:22.000Z,1.47
2022-11-04T01:00:54.247Z,1.23
2022-11-04T01:01:26.560Z,1.40
2022-11-04T01:02:01.558Z,1.63
2022-11-04T01:02:33.969Z,1.23
2022-11-04T01:03:06.544Z,1.30
2022-11-04T01:03:41.836Z,1.00
2022-11-04T01:04:14.178Z,1.33
2022-11-04T01:04:47.468Z,1.60
2022-11-04T01:05:22.269Z,1.30
2022-11-04T01:05:54.511Z,1.30
2022-11-04T01:06:27.506Z,1.27
2022-11-04T01:07:02.437Z,1.57
2022-11-04T01:07:37.344Z,1.60
2022-11-04T01:08:11.915Z,1.27
2022-11-04T01:08:46.733Z,1.53
2022-11-04T01:09:19.012Z,1.30
2022-11-04T01:09:51.192Z,1.40
2022-11-04T01:10:26.046Z,1.33
2022-11-04T01:11:02.083Z,1.23
2022-11-04T01:11:34.919Z,1.40
2022-11-04T01:12:09.766Z,1.40
2022-11-04T01:12:44.590Z,1.97
2022-11-04T01:13:17.343Z,1.27
2022-11-04T01:13:53.490Z,1.50
2022-11-04T01:14:26.018Z,1.40
2022-11-04T01:15:00.837Z,1.50
2022-11-04T01:15:33.072Z,1.10
2022-11-04T01:16:07.996Z,1.10
2022-11-04T01:16:43.572Z,1.23
2022-11-04T01:17:16.471Z,1.27
2022-11-04T01:17:48.774Z,1.30
2022-11-04T01:18:23.559Z,1.37
2022-11-04T01:18:55.839Z,1.50
2022-11-04T01:19:28.066Z,1.27
2022-11-04T01:20:03.902Z,1.40
2022-11-04T01:20:36.107Z,1.40
2022-11-04T01:21:09.509Z,1.50
2022-11-04T01:21:44.302Z,1.10
2022-11-04T01:22:16.514Z,1.27
2022-11-04T01:22:51.460Z,1.57
2022-11-04T01:23:23.688Z,1.10
2022-11-04T01:23:55.914Z,1.43
2022-11-04T01:24:31.059Z,1.20
2022-11-04T01:25:03.293Z,1.30
2022-11-04T01:25:35.763Z,1.30
2022-11-04T01:26:11.423Z,1.27
2022-11-04T01:26:43.619Z,1.33
2022-11-04T01:27:15.836Z,1.00
2022-11-04T01:27:53.287Z,1.10
2022-11-04T01:28:25.545Z,1.10
2022-11-04T01:28:58.486Z,1.50
2022-11-04T01:29:33.413Z,1.30
2022-11-04T01:30:07.333Z,1.40
2022-11-04T01:30:39.558Z,1.20
2022-11-04T01:31:13.543Z,1.20
2022-11-04T01:31:48.355Z,1.30
2022-11-04T01:32:20.544Z,1.10
2022-11-04T01:32:52.832Z,1.23
2022-11-04T01:33:27.634Z,1.10
2022-11-04T01:34:00.160Z,1.40
2022-11-04T01:34:32.363Z,0.90
2022-11-04T01:35:07.999Z,1.20
2022-11-04T01:35:40.183Z,1.23
2022-11-04T01:36:12.498Z,1.10
2022-11-04T01:36:47.327Z,1.20
2022-11-04T01:37:19.587Z,1.10
2022-11-04T01:37:51.819Z,1.00
2022-11-04T01:38:26.620Z,1.10
2022-11-04T01:38:58.882Z,1.30
2022-11-04T01:39:33.658Z,1.00
2022-11-04T01:40:07.371Z,1.00
2022-11-04T01:40:40.857Z,1.20
2022-11-04T01:41:20.190Z,0.90
2022-11-04T01:41:52.427Z,1.30
2022-11-04T01:42:27.531Z,0.83
2022-11-04T01:43:02.333Z,1.00
2022-11-04T01:43:46.994Z,0.77
2022-11-04T01:44:52.610Z,1.20
2022-11-04T01:45:24.886Z,1.17
2022-11-04T01:46:00.043Z,0.90
2022-11-04T01:46:39.555Z,0.97
2022-11-04T01:47:16.047Z,1.00
2022-11-04T01:47:52.421Z,1.23
2022-11-04T01:48:29.171Z,1.10
2022-11-04T01:49:06.338Z,1.20
2022-11-04T01:49:43.362Z,1.20
2022-11-04T01:50:22.001Z,0.90
2022-11-04T01:50:54.471Z,1.10
2022-11-04T01:51:27.731Z,1.00
2022-11-04T01:52:03.149Z,0.70
2022-11-04T01:52:42.384Z,0.90
2022-11-04T01:53:17.325Z,0.87
2022-11-04T01:53:51.882Z,0.90
2022-11-04T01:54:26.803Z,0.93
2022-11-04T01:55:03.860Z,1.00
2022-11-04T01:55:40.538Z,0.90
2022-11-04T01:56:17.065Z,0.80
2022-11-04T01:56:49.659Z,0.80
2022-11-04T01:57:27.884Z,0.93
2022-11-04T01:58:09.403Z,0.80
2022-11-04T01:58:45.461Z,0.70
2022-11-04T01:59:21.681Z,0.90
2022-11-04T01:59:56.533Z,0.97
2022-11-04T02:00:29.129Z,0.70
2022-11-04T02:01:01.967Z,1.10
2022-11-04T02:01:37.949Z,0.83
2022-11-04T02:02:10.604Z,0.83
2022-11-04T02:02:54.185Z,0.90
2022-11-04T02:03:29.015Z,1.20
2022-11-04T02:04:22.149Z,1.00
2022-11-04T02:04:56.970Z,0.90
2022-11-04T02:05:30.244Z,0.73
2022-11-04T02:06:03.562Z,0.60
2022-11-04T02:06:38.538Z,1.00
2022-11-04T02:07:11.509Z,0.77
2022-11-04T02:07:43.818Z,0.73
2022-11-04T02:08:19.919Z,0.87
2022-11-04T02:08:52.151Z,0.80
2022-11-04T02:09:25.740Z,0.90
2022-11-04T02:10:01.114Z,0.90
2022-11-04T02:10:33.440Z,0.90
2022-11-04T02:11:05.929Z,0.90
2022-11-04T02:11:53.118Z,1.10
2022-11-04T02:12:40.323Z,1.10
2022-11-04T02:13:18.513Z,0.90
2022-11-04T02:13:50.811Z,0.90
2022-11-04T02:14:23.311Z,0.70
2022-11-04T02:14:56.195Z,0.90
2022-11-04T02:15:39.209Z,0.90
2022-11-04T02:16:17.667Z,0.70
2022-11-04T02:16:50.419Z,0.80
2022-11-04T02:17:36.321Z,0.80
2022-11-04T02:18:26.453Z,0.80
2022-11-04T02:19:04.297Z,0.70
2022-11-04T02:20:02.659Z,0.90
2022-11-04T02:20:49.249Z,0.70
2022-11-04T02:21:47.182Z,0.90
2022-11-04T02:22:42.629Z,0.80
2022-11-04T02:23:52.808Z,0.77
2022-11-04T02:24:43.460Z,0.70
2022-11-04T02:25:30.872Z,1.03
2022-11-04T02:26:29.380Z,0.70
2022-11-04T02:27:17.148Z,0.73
2022-11-04T02:28:01.368Z,0.80
2022-11-04T02:29:07.462Z,0.70
2022-11-04T02:30:07.816Z,0.70
2022-11-04T02:30:47.804Z,1.07
2022-11-04T02:31:25.078Z,0.80
2022-11-04T02:32:05.568Z,1.10
2022-11-04T02:32:56.987Z,0.70
2022-11-04T02:33:31.550Z,0.63
2022-11-04T02:34:10.555Z,0.70
2022-11-04T02:34:54.131Z,0.70
2022-11-04T02:35:31.159Z,0.70
2022-11-04T02:36:07.937Z,0.93
2022-11-04T02:36:47.127Z,0.80
2022-11-04T02:37:28.610Z,0.60
2022-11-04T02:38:06.074Z,0.80
2022-11-04T02:38:45.625Z,0.60
2022-11-04T02:39:23.214Z,0.70
2022-11-04T02:39:58.538Z,0.90
2022-11-04T02:40:37.924Z,0.50
2022-11-04T02:41:15.103Z,0.63
2022-11-04T02:41:53.680Z,0.80
2022-11-04T02:42:31.738Z,0.83
2022-11-04T02:43:12.560Z,0.67
2022-11-04T02:43:50.363Z,0.70
2022-11-04T02:44:30.194Z,0.80
2022-11-04T02:45:13.502Z,0.80
2022-11-04T02:45:47.544Z,0.80
2022-11-04T02:46:26.887Z,0.80
2022-11-04T02:47:00.929Z,0.63
2022-11-04T02:47:33.816Z,0.80
2022-11-04T02:48:12.716Z,0.70
2022-11-04T02:48:48.156Z,0.70
2022-11-04T02:49:26.094Z,0.80
2022-11-04T02:50:03.113Z,0.70
2022-11-04T02:50:40.348Z,0.80
2022-11-04T02:51:16.548Z,0.87
2022-11-04T02:51:55.093Z,0.60
2022-11-04T02:52:33.491Z,0.57
2022-11-04T02:53:10.665Z,0.70
2022-11-04T02:53:48.694Z,0.60
2022-11-04T02:54:24.695Z,0.73
2022-11-04T02:55:01.344Z,0.90
2022-11-04T02:55:39.612Z,0.60
2022-11-04T02:56:12.248Z,0.80
2022-11-04T02:56:46.533Z,0.60
2022-11-04T02:57:24.562Z,0.90
2022-11-04T02:58:00.108Z,0.70
2022-11-04T02:58:35.724Z,0.60
2022-11-04T02:59:14.458Z,0.70
2022-11-04T02:59:48.545Z,0.60
2022-11-04T03:00:23.519Z,0.70
2022-11-04T03:01:00.235Z,0.57
2022-11-04T03:01:35.162Z,0.80
2022-11-04T03:02:10.128Z,0.53
2022-11-04T03:02:46.925Z,0.53
2022-11-04T03:03:22.577Z,0.80
2022-11-04T03:04:01.135Z,0.67
2022-11-04T03:04:36.707Z,0.60
2022-11-04T03:05:13.532Z,0.70
2022-11-04T03:05:51.201Z,0.80
2022-11-04T03:06:25.310Z,0.70
2022-11-04T03:06:58.631Z,0.60
2022-11-04T03:07:36.704Z,0.70
2022-11-04T03:08:14.744Z,0.70
2022-11-04T03:08:48.781Z,0.70
2022-11-04T03:09:25.232Z,0.60
2022-11-04T03:10:00.674Z,0.60
2022-11-04T03:10:36.335Z,0.57
2022-11-04T03:11:14.851Z,0.60
2022-11-04T03:11:52.679Z,0.63
2022-11-04T03:12:28.887Z,0.53
2022-11-04T03:13:08.474Z,0.60
2022-11-04T03:13:44.167Z,0.70
2022-11-04T03:14:20.959Z,0.50
2022-11-04T03:14:56.331Z,0.60
2022-11-04T03:15:33.180Z,0.60
2022-11-04T03:16:12.123Z,0.60
2022-11-04T03:16:46.983Z,0.60
2022-11-04T03:17:22.829Z,0.60
2022-11-04T03:18:03.022Z,0.60
2022-11-04T03:18:38.993Z,0.73
2022-11-04T03:19:17.209Z,0.57
2022-11-04T03:19:53.727Z,0.60
2022-11-04T03:20:27.668Z,0.60
2022-11-04T03:21:05.407Z,0.50
2022-11-04T03:21:41.653Z,0.70
2022-11-04T03:22:16.794Z,0.70
2022-11-04T03:22:55.787Z,0.60
2022-11-04T03:23:28.224Z,0.70
2022-11-04T03:24:00.937Z,0.70
2022-11-04T03:24:36.051Z,0.60
2022-11-04T03:25:09.928Z,0.50
2022-11-04T03:25:45.431Z,0.43
2022-11-04T03:26:27.105Z,0.50
2022-11-04T03:27:01.079Z,0.50
2022-11-04T03:27:36.504Z,0.50
2022-11-04T03:28:28.534Z,0.50
2022-11-04T03:29:08.896Z,0.63
2022-11-04T03:29:51.692Z,0.50
2022-11-04T03:30:24.333Z,0.60
2022-11-04T03:31:02.163Z,0.60
2022-11-04T03:31:44.244Z,0.60
2022-11-04T03:32:23.440Z,0.50
2022-11-04T03:32:59.037Z,0.60
2022-11-04T03:33:38.676Z,0.43
2022-11-04T03:34:11.302Z,0.47
2022-11-04T03:34:43.695Z,0.60
2022-11-04T03:35:19.076Z,0.60
2022-11-04T03:35:51.364Z,0.50
2022-11-04T03:36:23.705Z,0.50
2022-11-04T03:36:58.644Z,0.50
2022-11-04T03:37:30.972Z,0.60
2022-11-04T03:38:05.963Z,0.50
2022-11-04T03:38:38.942Z,0.53
2022-11-04T03:39:11.235Z,0.50
2022-11-04T03:39:46.195Z,0.60
2022-11-04T03:40:19.549Z,0.60
2022-11-04T03:40:52.215Z,0.50
2022-11-04T03:41:31.520Z,0.50
2022-11-04T03:42:20.492Z,0.60
2022-11-04T03:42:57.239Z,0.60
2022-11-04T03:43:32.447Z,0.50
2022-11-04T03:44:05.048Z,0.50
2022-11-04T03:44:37.344Z,0.50
2022-11-04T03:45:13.384Z,0.50
2022-11-04T03:45:45.803Z,0.50
2022-11-04T03:46:22.549Z,0.47
2022-11-04T03:46:57.583Z,0.50
2022-11-04T03:47:30.777Z,0.50
2022-11-04T03:48:03.549Z,0.53
2022-11-04T03:48:38.450Z,0.50
2022-11-04T03:49:12.308Z,0.50
2022-11-04T03:49:44.774Z,0.47
2022-11-04T03:50:26.425Z,0.40
2022-11-04T03:50:59.132Z,0.43
2022-11-04T03:51:34.124Z,0.57
2022-11-04T03:52:06.473Z,0.70
2022-11-04T03:52:39.589Z,0.40
2022-11-04T03:53:12.756Z,0.50
2022-11-04T03:53:48.112Z,0.43
2022-11-04T03:54:20.968Z,0.50
2022-11-04T03:54:53.890Z,0.40
2022-11-04T03:55:35.690Z,0.40
2022-11-04T03:56:27.906Z,0.50
2022-11-04T03:57:13.600Z,0.43
2022-11-04T03:57:50.045Z,0.63
2022-11-04T03:58:30.382Z,0.47
2022-11-04T03:59:15.257Z,0.40
2022-11-04T04:00:02.257Z,0.40
2022-11-04T04:00:42.988Z,0.50
2022-11-04T04:01:26.608Z,0.47
2022-11-04T04:02:06.063Z,0.50
2022-11-04T04:03:09.797Z,0.50
2022-11-04T04:03:46.180Z,0.50
2022-11-04T04:04:23.668Z,0.50
2022-11-04T04:05:01.580Z,0.50
2022-11-04T04:05:37.587Z,0.40
2022-11-04T04:06:16.033Z,0.50
2022-11-04T04:06:51.307Z,0.50
2022-11-04T04:07:27.328Z,0.50
2022-11-04T04:08:14.688Z,0.50
2022-11-04T04:08:50.383Z,0.50
2022-11-04T04:09:25.608Z,0.50
2022-11-04T04:10:24.726Z,0.60
2022-11-04T04:11:04.223Z,0.50
2022-11-04T04:11:44.815Z,0.40
2022-11-04T04:12:21.270Z,0.50
2022-11-04T04:12:54.461Z,0.50
2022-11-04T04:13:38.895Z,0.50
2022-11-04T04:14:36.792Z,0.50
2022-11-04T04:15:13.776Z,0.40
2022-11-04T04:15:52.835Z,0.60
2022-11-04T04:16:31.397Z,0.50
2022-11-04T04:17:06.181Z,0.50
2022-11-04T04:17:42.307Z,0.40
2022-11-04T04:18:16.049Z,0.43
2022-11-04T04:18:55.660Z,0.50
2022-11-04T04:19:34.588Z,0.50
2022-11-04T04:20:09.951Z,0.40
2022-11-04T04:20:43.919Z,0.47
2022-11-04T04:21:21.844Z,0.40
2022-11-04T04:21:58.904Z,0.40
2022-11-04T04:22:34.165Z,0.47
2022-11-04T04:23:32.418Z,0.50
2022-11-04T04:24:22.246Z,0.40
2022-11-04T04:25:11.525Z,0.43
2022-11-04T04:25:58.849Z,0.40
2022-11-04T04:26:47.728Z,0.40
2022-11-04T04:27:32.623Z,0.40
2022-11-04T04:28:05.782Z,0.50
2022-11-04T04:28:41.048Z,0.43
2022-11-04T04:29:14.504Z,0.50
2022-11-04T04:29:47.304Z,0.60
2022-11-04T04:30:22.807Z,0.47
2022-11-04T04:31:00.096Z,0.50
2022-11-04T04:31:52.142Z,0.40
2022-11-04T04:32:28.812Z,0.40
2022-11-04T04:33:04.967Z,0.43
2022-11-04T04:33:40.305Z,0.40
2022-11-04T04:34:12.605Z,0.60
2022-11-04T04:34:44.958Z,0.50
2022-11-04T04:35:32.811Z,0.40
2022-11-04T04:36:09.691Z,0.50
2022-11-04T04:36:46.397Z,0.40
2022-11-04T04:37:21.064Z,0.50
2022-11-04T04:38:17.158Z,0.50
2022-11-04T04:39:04.406Z,0.50
2022-11-04T04:39:54.963Z,0.40
2022-11-04T04:40:44.136Z,0.40
2022-11-04T04:41:34.952Z,0.40
2022-11-04T04:42:22.919Z,0.50
2022-11-04T04:43:22.289Z,0.43
2022-11-04T04:44:09.655Z,0.40
2022-11-04T04:44:57.789Z,0.40
2022-11-04T04:45:38.072Z,0.40
2022-11-04T04:46:10.338Z,0.40
2022-11-04T04:46:46.047Z,0.40
2022-11-04T04:47:22.873Z,0.50
2022-11-04T04:47:55.310Z,0.50
2022-11-04T04:48:30.292Z,0.40
2022-11-04T04:49:06.191Z,0.40
2022-11-04T04:49:49.950Z,0.40
2022-11-04T04:50:25.163Z,0.40
2022-11-04T04:50:57.677Z,0.50
2022-11-04T04:51:29.951Z,0.40
2022-11-04T04:52:05.511Z,0.40
2022-11-04T04:52:40.475Z,0.40
2022-11-04T04:53:16.057Z,0.40
2022-11-04T04:53:48.316Z,0.47
2022-11-04T04:54:20.584Z,0.50
2022-11-04T04:54:52.899Z,0.70
2022-11-04T04:55:27.815Z,0.50
2022-11-04T04:56:00.078Z,0.40
2022-11-04T04:56:32.402Z,0.40
2022-11-04T04:57:07.310Z,0.43
2022-11-04T04:57:39.614Z,0.50
2022-11-04T04:58:14.498Z,0.40
2022-11-04T04:58:46.755Z,0.40
2022-11-04T04:59:19.151Z,0.40
2022-11-04T04:59:51.415Z,0.50
2022-11-04T05:00:27.088Z,0.50
2022-11-04T05:00:59.366Z,0.50
2022-11-04T05:01:31.935Z,0.50
2022-11-04T05:02:09.730Z,0.40
2022-11-04T05:02:42.371Z,0.50
2022-11-04T05:03:14.659Z,0.50
2022-11-04T05:03:49.571Z,0.50
2022-11-04T05:04:21.825Z,0.50
2022-11-04T05:04:54.634Z,0.40
2022-11-04T05:05:29.547Z,0.40
2022-11-04T05:06:01.802Z,0.50
2022-11-04T05:06:34.062Z,0.47
2022-11-04T05:07:10.132Z,0.50
2022-11-04T05:07:42.784Z,0.40
2022-11-04T05:08:17.670Z,0.50
2022-11-04T05:08:49.951Z,0.40
2022-11-04T05:09:22.277Z,0.40
2022-11-04T05:09:57.579Z,0.40
2022-11-04T05:10:29.851Z,0.40
2022-11-04T05:11:02.108Z,0.50
2022-11-04T05:11:37.114Z,0.50
2022-11-04T05:12:10.244Z,0.50
2022-11-04T05:12:57.698Z,0.40
2022-11-04T05:13:30.270Z,0.40
2022-11-04T05:14:05.284Z,0.50
2022-11-04T05:14:37.532Z,0.40
2022-11-04T05:15:10.591Z,0.47
2022-11-04T05:15:42.926Z,0.43
2022-11-04T05:16:17.836Z,0.40
2022-11-04T05:16:50.094Z,0.50
2022-11-04T05:17:27.841Z,0.40
2022-11-04T05:18:03.520Z,0.40
2022-11-04T05:18:36.195Z,0.40
2022-11-04T05:19:11.348Z,0.40
2022-11-04T05:19:43.610Z,0.40
2022-11-04T05:20:16.083Z,0.43
2022-11-04T05:20:50.999Z,0.50
2022-11-04T05:21:23.260Z,0.40
2022-11-04T05:21:55.548Z,0.50
2022-11-04T05:22:31.147Z,0.50
2022-11-04T05:23:03.404Z,0.40
2022-11-04T05:23:38.323Z,0.40
2022-11-04T05:24:10.775Z,0.50
2022-11-04T05:24:43.033Z,0.47
2022-11-04T05:25:18.310Z,0.60
2022-11-04T05:25:50.613Z,0.43
2022-11-04T05:26:25.616Z,0.50
2022-11-04T05:26:57.913Z,0.50
2022-11-04T05:27:30.155Z,0.50
2022-11-04T05:28:05.850Z,0.40
2022-11-04T05:28:38.964Z,0.50
2022-11-04T05:29:12.577Z,0.40
2022-11-04T05:29:47.485Z,0.40
2022-11-04T05:30:19.795Z,0.50
2022-11-04T05:30:54.823Z,0.40
2022-11-04T05:31:27.723Z,0.40
2022-11-04T05:32:00.003Z,0.50
2022-11-04T05:32:37.573Z,0.40
2022-11-04T05:33:10.278Z,0.40
2022-11-04T05:33:43.015Z,0.50
2022-11-04T05:34:17.984Z,0.40
2022-11-04T05:34:50.243Z,0.57
2022-11-04T05:35:22.552Z,0.60
2022-11-04T05:35:57.648Z,1.10
2022-11-04T05:36:29.917Z,1.17
2022-11-04T05:37:02.467Z,1.00
2022-11-04T05:37:37.419Z,1.20
2022-11-04T05:38:09.735Z,2.30
2022-11-04T05:38:45.316Z,2.00
2022-11-04T05:39:17.855Z,2.20
2022-11-04T05:39:50.115Z,1.80
2022-11-04T05:40:25.113Z,2.50
2022-11-04T05:40:58.193Z,2.13
2022-11-04T05:41:30.567Z,1.70
2022-11-04T05:42:05.436Z,1.50
2022-11-04T05:42:37.747Z,1.50
2022-11-04T05:43:10.374Z,1.60
2022-11-04T05:43:45.438Z,0.77
2022-11-04T05:44:17.816Z,0.70
2022-11-04T05:44:50.085Z,0.70
2022-11-04T05:45:25.004Z,0.50
2022-11-04T05:45:59.041Z,0.50
2022-11-04T05:46:31.944Z,0.57
2022-11-04T05:47:06.871Z,0.60
2022-11-04T05:47:41.779Z,0.50
2022-11-04T05:48:14.036Z,0.50
2022-11-04T05:48:49.075Z,0.67
2022-11-04T05:49:21.338Z,0.50
2022-11-04T05:49:53.661Z,0.50
2022-11-04T05:50:28.708Z,0.60
2022-11-04T05:51:01.722Z,0.60
2022-11-04T05:51:34.196Z,0.60
2022-11-04T05:52:09.127Z,0.50
2022-11-04T05:52:41.475Z,0.70
2022-11-04T05:53:13.762Z,0.40
2022-11-04T05:53:46.082Z,0.70
2022-11-04T05:54:21.010Z,0.50
2022-11-04T05:54:53.475Z,0.80
2022-11-04T05:55:25.815Z,0.83
2022-11-04T05:56:00.934Z,1.37
2022-11-04T05:56:33.280Z,1.47
2022-11-04T05:57:05.573Z,1.40
2022-11-04T05:57:40.486Z,1.67
2022-11-04T05:58:12.884Z,1.60
2022-11-04T05:58:45.204Z,1.40
2022-11-04T05:59:20.113Z,0.97
2022-11-04T05:59:52.383Z,0.70
2022-11-04T06:00:26.341Z,0.60
2022-11-04T06:01:15.220Z,0.60
2022-11-04T06:01:49.234Z,0.60
2022-11-04T06:02:24.305Z,0.50
2022-11-04T06:02:59.351Z,0.53
2022-11-04T06:03:31.665Z,0.50
2022-11-04T06:04:08.280Z,0.50
2022-11-04T06:04:40.687Z,0.60
2022-11-04T06:05:13.447Z,0.50
2022-11-04T06:05:49.114Z,0.50
2022-11-04T06:06:21.854Z,0.40
2022-11-04T06:06:58.987Z,0.53
2022-11-04T06:07:31.599Z,0.40
2022-11-04T06:08:03.958Z,0.40
2022-11-04T06:08:43.994Z,0.40
2022-11-04T06:09:17.899Z,0.40
2022-11-04T06:09:57.039Z,0.40
2022-11-04T06:10:29.400Z,0.50
2022-11-04T06:11:02.958Z,0.40
2022-11-04T06:11:43.373Z,0.40
2022-11-04T06:12:19.407Z,0.50
2022-11-04T06:12:54.799Z,0.50
2022-11-04T06:13:29.502Z,0.40
2022-11-04T06:14:04.583Z,0.40
2022-11-04T06:14:37.141Z,0.50
2022-11-04T06:15:10.625Z,0.40
2022-11-04T06:15:46.955Z,0.50
2022-11-04T06:16:20.842Z,0.50
2022-11-04T06:16:59.635Z,0.40
2022-11-04T06:17:32.193Z,0.40
2022-11-04T06:18:07.421Z,0.40
2022-11-04T06:18:43.551Z,0.70
2022-11-04T06:19:18.832Z,0.60
2022-11-04T06:19:53.996Z,0.50
2022-11-04T06:20:26.304Z,0.50
2022-11-04T06:21:10.032Z,0.50
2022-11-04T06:21:44.980Z,0.40
2022-11-04T06:22:23.285Z,0.60
2022-11-04T06:22:56.173Z,0.40
2022-11-04T06:23:31.384Z,0.40
2022-11-04T06:24:04.500Z,0.60
2022-11-04T06:24:39.915Z,0.40
2022-11-04T06:25:12.326Z,0.40
2022-11-04T06:25:47.642Z,0.40
2022-11-04T06:26:28.318Z,0.40
2022-11-04T06:27:03.100Z,0.50
2022-11-04T06:27:38.001Z,0.50
2022-11-04T06:28:10.722Z,0.40
2022-11-04T06:28:44.900Z,0.40
2022-11-04T06:29:19.838Z,0.40
2022-11-04T06:29:53.711Z,0.50
2022-11-04T06:30:28.668Z,0.40
2022-11-04T06:31:03.055Z,0.40
2022-11-04T06:31:35.384Z,0.40
2022-11-04T06:32:10.780Z,0.40
2022-11-04T06:32:43.036Z,0.50
2022-11-04T06:33:17.925Z,0.60
2022-11-04T06:33:52.844Z,0.40
2022-11-04T06:34:25.268Z,0.40
2022-11-04T06:35:00.213Z,0.40
2022-11-04T06:35:32.475Z,0.50
2022-11-04T06:36:06.954Z,0.40
2022-11-04T06:36:41.874Z,0.50
2022-11-04T06:37:14.129Z,0.50
2022-11-04T06:37:49.081Z,0.50
2022-11-04T06:38:21.327Z,0.50
2022-11-04T06:39:01.426Z,0.40
2022-11-04T06:39:36.607Z,0.50
2022-11-04T06:40:09.894Z,0.43
2022-11-04T06:40:44.791Z,0.40
2022-11-04T06:41:17.669Z,0.50
2022-11-04T06:41:51.707Z,0.40
2022-11-04T06:42:28.332Z,0.40
2022-11-04T06:43:00.875Z,0.50
2022-11-04T06:43:33.175Z,0.40
2022-11-04T06:44:08.102Z,0.53
2022-11-04T06:44:40.387Z,0.40
2022-11-04T06:45:12.634Z,0.50
2022-11-04T06:45:47.616Z,0.40
2022-11-04T06:46:28.085Z,0.60
2022-11-04T06:47:03.098Z,0.50
2022-11-04T06:47:35.375Z,0.47
2022-11-04T06:48:07.775Z,0.40
2022-11-04T06:48:45.299Z,0.50
2022-11-04T06:49:20.126Z,0.50
2022-11-04T06:49:52.379Z,0.40
2022-11-04T06:50:27.338Z,0.40
2022-11-04T06:51:00.753Z,0.57
2022-11-04T06:51:33.784Z,0.50
2022-11-04T06:52:08.708Z,0.40
2022-11-04T06:52:42.550Z,0.50
2022-11-04T06:53:15.062Z,0.40
2022-11-04T06:53:49.994Z,0.40
2022-11-04T06:54:22.288Z,0.50
2022-11-04T06:54:57.192Z,0.40
2022-11-04T06:55:29.457Z,0.40
2022-11-04T06:56:03.123Z,0.53
2022-11-04T06:56:38.097Z,0.40
2022-11-04T06:57:11.684Z,0.60
2022-11-04T06:57:43.962Z,0.40
2022-11-04T06:58:18.835Z,0.50
2022-11-04T06:58:51.633Z,0.40
2022-11-04T06:59:24.340Z,0.50
2022-11-04T06:59:59.320Z,0.50
2022-11-04T07:00:32.080Z,0.40
2022-11-04T07:01:09.267Z,0.50
2022-11-04T07:01:48.175Z,0.50
2022-11-04T07:02:20.650Z,0.50
2022-11-04T07:02:53.060Z,0.50
2022-11-04T07:03:28.026Z,0.40
2022-11-04T07:04:05.332Z,0.60
2022-11-04T07:04:40.763Z,0.50
2022-11-04T07:05:14.676Z,0.57
2022-11-04T07:05:46.985Z,0.57
2022-11-04T07:06:22.444Z,0.50
2022-11-04T07:06:54.715Z,0.50
2022-11-04T07:07:29.691Z,0.50
2022-11-04T07:08:04.732Z,0.40
2022-11-04T07:08:37.112Z,0.60
2022-11-04T07:09:11.922Z,0.70
2022-11-04T07:09:46.863Z,0.50
2022-11-04T07:10:19.129Z,0.60
2022-11-04T07:10:51.405Z,0.50
2022-11-04T07:11:26.424Z,0.53
2022-11-04T07:11:58.740Z,0.50
2022-11-04T07:12:31.015Z,0.50
2022-11-04T07:13:05.920Z,0.50
2022-11-04T07:13:38.171Z,0.57
2022-11-04T07:14:10.471Z,0.60
2022-11-04T07:14:45.389Z,0.53
2022-11-04T07:15:18.592Z,0.40
2022-11-04T07:15:52.263Z,0.40
2022-11-04T07:16:27.287Z,0.73
2022-11-04T07:16:59.541Z,0.50
2022-11-04T07:17:34.467Z,0.50
2022-11-04T07:18:07.606Z,0.47
2022-11-04T07:18:40.168Z,0.50
2022-11-04T07:19:17.718Z,0.50
2022-11-04T07:19:50.004Z,0.50
2022-11-04T07:20:22.384Z,0.53
2022-11-04T07:20:57.288Z,0.40
2022-11-04T07:21:29.641Z,0.40
2022-11-04T07:22:02.036Z,0.40
2022-11-04T07:22:36.970Z,0.40
2022-11-04T07:23:09.256Z,0.40
2022-11-04T07:23:41.540Z,0.40
2022-11-04T07:24:16.426Z,0.50
2022-11-04T07:24:49.631Z,0.50
2022-11-04T07:25:21.888Z,0.60
2022-11-04T07:25:56.891Z,0.50
2022-11-04T07:26:29.156Z,0.50
2022-11-04T07:27:04.247Z,0.50
2022-11-04T07:27:36.521Z,0.40
2022-11-04T07:28:09.024Z,0.50
2022-11-04T07:28:44.179Z,0.50
2022-11-04T07:29:16.670Z,0.47
2022-11-04T07:29:49.009Z,0.40
2022-11-04T07:30:23.926Z,0.40
2022-11-04T07:30:57.907Z,0.40
2022-11-04T07:31:33.040Z,0.50
2022-11-04T07:32:06.205Z,0.40
2022-11-04T07:32:38.472Z,0.43
2022-11-04T07:33:13.385Z,0.50
2022-11-04T07:33:50.164Z,0.50
2022-11-04T07:34:28.825Z,0.40
2022-11-04T07:35:01.139Z,0.43
2022-11-04T07:35:33.378Z,0.60
2022-11-04T07:36:09.215Z,0.40
2022-11-04T07:36:41.509Z,0.40
2022-11-04T07:37:16.435Z,0.50
2022-11-04T07:37:48.762Z,0.70
2022-11-04T07:38:21.435Z,0.40
2022-11-04T07:38:56.340Z,0.43
2022-11-04T07:39:28.615Z,0.40
2022-11-04T07:40:00.926Z,0.50
2022-11-04T07:40:37.244Z,0.50
2022-11-04T07:41:09.729Z,0.60
2022-11-04T07:41:42.161Z,0.47
2022-11-04T07:42:17.116Z,0.50
2022-11-04T07:42:58.069Z,0.50
2022-11-04T07:43:43.652Z,0.47
2022-11-04T07:44:16.100Z,0.40
2022-11-04T07:44:48.392Z,0.50
2022-11-04T07:45:23.323Z,0.40
2022-11-04T07:46:02.339Z,0.40
2022-11-04T07:46:35.191Z,0.60
2022-11-04T07:47:10.136Z,0.60
2022-11-04T07:47:42.445Z,0.50
2022-11-04T07:48:14.788Z,0.50
2022-11-04T07:48:50.181Z,0.70
2022-11-04T07:49:25.876Z,0.50
2022-11-04T07:50:02.996Z,0.50
2022-11-04T07:50:39.629Z,0.70
2022-11-04T07:51:13.236Z,0.40
2022-11-04T07:51:48.714Z,0.50
2022-11-04T07:52:21.045Z,0.60
2022-11-04T07:52:55.959Z,0.90
2022-11-04T07:53:29.174Z,0.97
2022-11-04T07:54:04.382Z,0.80
2022-11-04T07:54:36.661Z,0.90
2022-11-04T07:55:10.217Z,0.70
2022-11-04T07:55:49.569Z,0.57
2022-11-04T07:56:24.146Z,0.50
2022-11-04T07:56:59.072Z,0.50
2022-11-04T07:57:31.378Z,0.50
2022-11-04T07:58:04.364Z,0.60
2022-11-04T07:58:39.286Z,0.50
2022-11-04T07:59:11.558Z,0.40
2022-11-04T07:59:46.495Z,0.50
2022-11-04T08:00:19.398Z,0.40
2022-11-04T08:00:51.704Z,0.60